sensor_id;sensor_type;location;lat;lon;timestamp;temperature;humidity
66629;DHT22;53532;53.084;6.352;2022-08-19T00:01:25;14.30;99.90
66629;DHT22;53532;53.084;6.352;2022-08-19T00:03:51;14.20;99.90
66629;DHT22;53532;53.084;6.352;2022-08-19T00:06:17;14.10;99.90
66629;DHT22;53532;53.084;6.352;2022-08-19T00:08:44;14.20;99.90
66629;DHT22;53532;53.084;6.352;2022-08-19T00:11:10;14.10;99.90
66629;DHT22;53532;53.084;6.352;2022-08-19T00:13:36;14.10;99.90
66629;DHT22;53532;53.084;6.352;2022-08-19T00:16:04;14.00;99.90
66629;DHT22;53532;53.084;6.352;2022-08-19T00:18:31;14.00;99.90
66629;DHT22;53532;53.084;6.352;2022-08-19T00:20:57;14.00;99.90
66629;DHT22;53532;53.084;6.352;2022-08-19T00:23:24;14.00;99.90
66629;DHT22;53532;53.084;6.352;2022-08-19T00:25:51;14.00;99.90
66629;DHT22;53532;53.084;6.352;2022-08-19T00:28:17;14.00;99.90
66629;DHT22;53532;53.084;6.352;2022-08-19T00:30:43;14.00;99.90
66629;DHT22;53532;53.084;6.352;2022-08-19T00:33:09;14.00;99.90
66629;DHT22;53532;53.084;6.352;2022-08-19T00:35:35;14.00;99.90
66629;DHT22;53532;53.084;6.352;2022-08-19T00:38:04;14.00;99.90
66629;DHT22;53532;53.084;6.352;2022-08-19T00:40:31;14.00;99.90
66629;DHT22;53532;53.084;6.352;2022-08-19T00:42:58;13.90;99.90
66629;DHT22;53532;53.084;6.352;2022-08-19T00:45:27;14.00;99.90
66629;DHT22;53532;53.084;6.352;2022-08-19T00:47:53;14.00;99.90
66629;DHT22;53532;53.084;6.352;2022-08-19T00:50:21;14.00;99.90
66629;DHT22;53532;53.084;6.352;2022-08-19T00:52:49;14.00;99.90
66629;DHT22;53532;53.084;6.352;2022-08-19T00:55:20;14.00;99.90
66629;DHT22;53532;53.084;6.352;2022-08-19T00:57:50;14.00;99.90
66629;DHT22;53532;53.084;6.352;2022-08-19T01:00:18;14.00;99.90
66629;DHT22;53532;53.084;6.352;2022-08-19T01:02:45;14.00;99.90
66629;DHT22;53532;53.084;6.352;2022-08-19T01:05:14;13.90;99.90
66629;DHT22;53532;53.084;6.352;2022-08-19T01:07:41;13.90;99.90
66629;DHT22;53532;53.084;6.352;2022-08-19T01:10:09;13.90;99.90
66629;DHT22;53532;53.084;6.352;2022-08-19T01:12:36;13.80;99.90
66629;DHT22;53532;53.084;6.352;2022-08-19T01:15:02;13.80;99.90
66629;DHT22;53532;53.084;6.352;2022-08-19T01:17:30;13.80;99.90
66629;DHT22;53532;53.084;6.352;2022-08-19T01:19:56;13.80;99.90
66629;DHT22;53532;53.084;6.352;2022-08-19T01:22:27;13.70;99.90
66629;DHT22;53532;53.084;6.352;2022-08-19T01:24:56;13.70;99.90
66629;DHT22;53532;53.084;6.352;2022-08-19T01:27:22;13.60;99.90
66629;DHT22;53532;53.084;6.352;2022-08-19T07:36:33;18.70;99.90
66629;DHT22;53532;53.084;6.352;2022-08-19T07:39:02;18.70;99.90
66629;DHT22;53532;53.084;6.352;2022-08-19T07:41:29;18.80;99.90
66629;DHT22;53532;53.084;6.352;2022-08-19T07:43:56;18.90;99.90
66629;DHT22;53532;53.084;6.352;2022-08-19T07:46:22;19.10;99.90
66629;DHT22;53532;53.084;6.352;2022-08-19T07:48:49;19.30;99.90
66629;DHT22;53532;53.084;6.352;2022-08-19T07:51:18;19.50;99.90
66629;DHT22;53532;53.084;6.352;2022-08-19T07:53:45;19.70;99.90
66629;DHT22;53532;53.084;6.352;2022-08-19T07:56:13;20.00;99.90
66629;DHT22;53532;53.084;6.352;2022-08-19T07:58:42;20.20;99.90
66629;DHT22;53532;53.084;6.352;2022-08-19T08:01:11;20.50;99.90
66629;DHT22;53532;53.084;6.352;2022-08-19T08:03:37;20.80;99.90
66629;DHT22;53532;53.084;6.352;2022-08-19T08:06:22;21.00;99.90
66629;DHT22;53532;53.084;6.352;2022-08-19T08:09:09;21.40;99.90
66629;DHT22;53532;53.084;6.352;2022-08-19T08:11:40;21.70;99.90
66629;DHT22;53532;53.084;6.352;2022-08-19T08:14:06;22.00;99.90
66629;DHT22;53532;53.084;6.352;2022-08-19T08:16:34;22.20;99.90
66629;DHT22;53532;53.084;6.352;2022-08-19T08:19:00;22.50;99.90
66629;DHT22;53532;53.084;6.352;2022-08-19T08:21:26;22.80;99.90
66629;DHT22;53532;53.084;6.352;2022-08-19T08:23:52;23.00;99.90
66629;DHT22;53532;53.084;6.352;2022-08-19T08:26:21;23.30;99.90
66629;DHT22;53532;53.084;6.352;2022-08-19T08:28:48;23.50;99.90
66629;DHT22;53532;53.084;6.352;2022-08-19T08:31:14;23.70;99.90
66629;DHT22;53532;53.084;6.352;2022-08-19T08:33:40;24.00;99.90
66629;DHT22;53532;53.084;6.352;2022-08-19T08:36:08;24.10;99.90
66629;DHT22;53532;53.084;6.352;2022-08-19T08:38:35;24.30;99.90
66629;DHT22;53532;53.084;6.352;2022-08-19T08:41:07;24.50;99.90
66629;DHT22;53532;53.084;6.352;2022-08-19T08:43:37;24.60;99.90
66629;DHT22;53532;53.084;6.352;2022-08-19T08:46:08;24.70;99.90
66629;DHT22;53532;53.084;6.352;2022-08-19T08:48:39;24.80;99.90
66629;DHT22;53532;53.084;6.352;2022-08-19T08:51:10;25.00;99.90
66629;DHT22;53532;53.084;6.352;2022-08-19T08:53:38;25.10;99.90
66629;DHT22;53532;53.084;6.352;2022-08-19T08:56:06;25.20;99.90
66629;DHT22;53532;53.084;6.352;2022-08-19T08:58:45;25.40;99.90
66629;DHT22;53532;53.084;6.352;2022-08-19T09:01:14;25.50;99.90
66629;DHT22;53532;53.084;6.352;2022-08-19T09:03:41;25.70;99.90
66629;DHT22;53532;53.084;6.352;2022-08-19T09:06:13;25.80;99.90
66629;DHT22;53532;53.084;6.352;2022-08-19T09:08:48;25.90;99.90
66629;DHT22;53532;53.084;6.352;2022-08-19T09:11:19;25.90;99.90
66629;DHT22;53532;53.084;6.352;2022-08-19T09:14:01;26.00;99.90
66629;DHT22;53532;53.084;6.352;2022-08-19T09:16:30;26.20;99.90
66629;DHT22;53532;53.084;6.352;2022-08-19T09:18:57;26.30;99.90
66629;DHT22;53532;53.084;6.352;2022-08-19T09:21:24;26.40;99.90
66629;DHT22;53532;53.084;6.352;2022-08-19T09:23:51;26.60;99.90
66629;DHT22;53532;53.084;6.352;2022-08-19T09:26:19;26.70;99.90
66629;DHT22;53532;53.084;6.352;2022-08-19T09:28:47;26.80;99.90
66629;DHT22;53532;53.084;6.352;2022-08-19T09:31:17;26.90;99.90
66629;DHT22;53532;53.084;6.352;2022-08-19T09:33:46;26.90;99.90
66629;DHT22;53532;53.084;6.352;2022-08-19T09:36:15;27.00;99.90
66629;DHT22;53532;53.084;6.352;2022-08-19T09:38:41;27.10;99.90
66629;DHT22;53532;53.084;6.352;2022-08-19T09:41:09;27.20;99.90
66629;DHT22;53532;53.084;6.352;2022-08-19T09:43:36;27.30;99.90
66629;DHT22;53532;53.084;6.352;2022-08-19T09:46:03;27.30;99.90
66629;DHT22;53532;53.084;6.352;2022-08-19T09:48:32;27.40;99.90
66629;DHT22;53532;53.084;6.352;2022-08-19T09:51:04;27.40;99.90
66629;DHT22;53532;53.084;6.352;2022-08-19T09:53:30;27.50;99.90
66629;DHT22;53532;53.084;6.352;2022-08-19T09:55:56;27.60;99.90
66629;DHT22;53532;53.084;6.352;2022-08-19T09:58:22;27.70;99.90
66629;DHT22;53532;53.084;6.352;2022-08-19T10:00:53;27.80;99.90
66629;DHT22;53532;53.084;6.352;2022-08-19T10:03:19;27.80;99.90
66629;DHT22;53532;53.084;6.352;2022-08-19T10:05:44;27.90;99.90
66629;DHT22;53532;53.084;6.352;2022-08-19T10:08:20;27.90;99.90
66629;DHT22;53532;53.084;6.352;2022-08-19T10:10:47;28.00;99.90
66629;DHT22;53532;53.084;6.352;2022-08-19T10:13:14;28.00;99.90
66629;DHT22;53532;53.084;6.352;2022-08-19T10:15:40;28.00;99.90
66629;DHT22;53532;53.084;6.352;2022-08-19T10:18:06;28.10;99.90
66629;DHT22;53532;53.084;6.352;2022-08-19T10:20:32;28.10;99.90
66629;DHT22;53532;53.084;6.352;2022-08-19T10:23:00;28.20;99.90
66629;DHT22;53532;53.084;6.352;2022-08-19T10:25:27;28.20;99.90
66629;DHT22;53532;53.084;6.352;2022-08-19T10:27:54;28.40;99.90
66629;DHT22;53532;53.084;6.352;2022-08-19T10:30:20;28.50;99.90
66629;DHT22;53532;53.084;6.352;2022-08-19T10:32:46;28.60;99.90
66629;DHT22;53532;53.084;6.352;2022-08-19T10:35:12;28.50;99.90
66629;DHT22;53532;53.084;6.352;2022-08-19T10:37:39;28.50;99.90
66629;DHT22;53532;53.084;6.352;2022-08-19T10:40:07;28.50;99.90
66629;DHT22;53532;53.084;6.352;2022-08-19T10:42:35;28.50;99.90
66629;DHT22;53532;53.084;6.352;2022-08-19T10:45:02;28.40;99.90
66629;DHT22;53532;53.084;6.352;2022-08-19T10:47:28;28.20;99.90
66629;DHT22;53532;53.084;6.352;2022-08-19T10:49:54;27.90;99.90
66629;DHT22;53532;53.084;6.352;2022-08-19T10:52:40;27.60;99.90
66629;DHT22;53532;53.084;6.352;2022-08-19T10:55:06;27.50;99.90
66629;DHT22;53532;53.084;6.352;2022-08-19T10:57:52;27.40;99.90
66629;DHT22;53532;53.084;6.352;2022-08-19T11:00:19;27.30;99.90
66629;DHT22;53532;53.084;6.352;2022-08-19T11:02:45;27.30;99.90
66629;DHT22;53532;53.084;6.352;2022-08-19T11:05:11;27.50;99.90
66629;DHT22;53532;53.084;6.352;2022-08-19T11:07:38;27.80;99.90
66629;DHT22;53532;53.084;6.352;2022-08-19T11:10:04;28.20;99.10
66629;DHT22;53532;53.084;6.352;2022-08-19T11:12:30;28.40;99.90
66629;DHT22;53532;53.084;6.352;2022-08-19T11:14:58;28.60;97.80
66629;DHT22;53532;53.084;6.352;2022-08-19T11:17:24;28.50;98.50
66629;DHT22;53532;53.084;6.352;2022-08-19T11:19:50;28.60;99.20
66629;DHT22;53532;53.084;6.352;2022-08-19T11:22:16;28.70;99.90
66629;DHT22;53532;53.084;6.352;2022-08-19T11:24:42;28.80;93.40
66629;DHT22;53532;53.084;6.352;2022-08-19T11:27:09;29.00;88.80
66629;DHT22;53532;53.084;6.352;2022-08-19T11:29:37;29.10;89.60
66629;DHT22;53532;53.084;6.352;2022-08-19T11:32:06;29.20;86.60
66629;DHT22;53532;53.084;6.352;2022-08-19T11:34:33;29.30;91.50
66629;DHT22;53532;53.084;6.352;2022-08-19T11:37:01;29.20;94.30
66629;DHT22;53532;53.084;6.352;2022-08-19T11:39:29;29.20;92.50
66629;DHT22;53532;53.084;6.352;2022-08-19T11:41:57;29.10;85.70
66629;DHT22;53532;53.084;6.352;2022-08-19T11:44:24;28.90;92.20
66629;DHT22;53532;53.084;6.352;2022-08-19T11:46:49;28.80;90.50
66629;DHT22;53532;53.084;6.352;2022-08-19T11:49:18;28.70;87.80
66629;DHT22;53532;53.084;6.352;2022-08-19T11:51:45;28.50;82.30
66629;DHT22;53532;53.084;6.352;2022-08-19T11:54:12;28.40;90.70
66629;DHT22;53532;53.084;6.352;2022-08-19T11:56:39;28.40;89.90
66629;DHT22;53532;53.084;6.352;2022-08-19T11:59:05;28.40;94.60
66629;DHT22;53532;53.084;6.352;2022-08-19T12:01:31;28.50;93.50
66629;DHT22;53532;53.084;6.352;2022-08-19T12:03:57;28.70;79.60
66629;DHT22;53532;53.084;6.352;2022-08-19T12:06:29;28.80;87.00
66629;DHT22;53532;53.084;6.352;2022-08-19T12:08:55;28.70;86.50
66629;DHT22;53532;53.084;6.352;2022-08-19T12:11:22;28.60;77.60
66629;DHT22;53532;53.084;6.352;2022-08-19T12:13:48;28.40;79.60
66629;DHT22;53532;53.084;6.352;2022-08-19T12:16:16;28.30;79.30
66629;DHT22;53532;53.084;6.352;2022-08-19T12:18:43;28.20;82.20
66629;DHT22;53532;53.084;6.352;2022-08-19T12:21:12;28.00;80.90
66629;DHT22;53532;53.084;6.352;2022-08-19T12:23:40;27.90;87.50
66629;DHT22;53532;53.084;6.352;2022-08-19T12:26:08;27.90;88.10
66629;DHT22;53532;53.084;6.352;2022-08-19T12:28:34;27.80;88.30
66629;DHT22;53532;53.084;6.352;2022-08-19T12:31:00;27.80;87.40
66629;DHT22;53532;53.084;6.352;2022-08-19T12:33:26;27.70;91.40
66629;DHT22;53532;53.084;6.352;2022-08-19T12:35:54;27.60;92.00
66629;DHT22;53532;53.084;6.352;2022-08-19T12:38:20;27.50;92.10
66629;DHT22;53532;53.084;6.352;2022-08-19T12:40:50;27.40;93.30
66629;DHT22;53532;53.084;6.352;2022-08-19T12:43:17;27.20;93.30
66629;DHT22;53532;53.084;6.352;2022-08-19T12:45:45;27.00;99.00
66629;DHT22;53532;53.084;6.352;2022-08-19T12:48:11;26.90;99.90
66629;DHT22;53532;53.084;6.352;2022-08-19T12:50:39;26.80;99.90
66629;DHT22;53532;53.084;6.352;2022-08-19T12:53:05;26.60;99.90
66629;DHT22;53532;53.084;6.352;2022-08-19T12:55:31;26.60;99.90
66629;DHT22;53532;53.084;6.352;2022-08-19T12:57:58;26.50;99.90
66629;DHT22;53532;53.084;6.352;2022-08-19T13:00:28;26.40;99.90
66629;DHT22;53532;53.084;6.352;2022-08-19T13:02:54;26.40;99.90
66629;DHT22;53532;53.084;6.352;2022-08-19T13:05:22;26.40;99.90
66629;DHT22;53532;53.084;6.352;2022-08-19T13:07:50;26.40;99.90
66629;DHT22;53532;53.084;6.352;2022-08-19T13:10:18;26.40;99.90
66629;DHT22;53532;53.084;6.352;2022-08-19T13:12:46;26.40;99.90
66629;DHT22;53532;53.084;6.352;2022-08-19T13:15:16;26.30;99.90
66629;DHT22;53532;53.084;6.352;2022-08-19T13:17:46;26.20;99.90
66629;DHT22;53532;53.084;6.352;2022-08-19T13:20:13;26.00;99.90
66629;DHT22;53532;53.084;6.352;2022-08-19T13:22:39;25.90;99.90
66629;DHT22;53532;53.084;6.352;2022-08-19T13:25:05;25.70;99.90
66629;DHT22;53532;53.084;6.352;2022-08-19T13:27:32;25.40;99.90
66629;DHT22;53532;53.084;6.352;2022-08-19T13:29:58;25.30;99.90
66629;DHT22;53532;53.084;6.352;2022-08-19T13:32:44;25.10;99.90
66629;DHT22;53532;53.084;6.352;2022-08-19T13:35:28;24.80;99.90
66629;DHT22;53532;53.084;6.352;2022-08-19T13:37:54;24.70;99.90
66629;DHT22;53532;53.084;6.352;2022-08-19T13:40:23;24.50;99.90
66629;DHT22;53532;53.084;6.352;2022-08-19T13:42:50;24.40;99.90
66629;DHT22;53532;53.084;6.352;2022-08-19T13:45:18;24.30;99.90
66629;DHT22;53532;53.084;6.352;2022-08-19T13:47:47;24.20;99.90
66629;DHT22;53532;53.084;6.352;2022-08-19T13:50:15;24.10;99.90
66629;DHT22;53532;53.084;6.352;2022-08-19T13:52:42;24.10;99.90
66629;DHT22;53532;53.084;6.352;2022-08-19T13:55:09;24.10;99.90
66629;DHT22;53532;53.084;6.352;2022-08-19T13:57:36;24.10;99.90
66629;DHT22;53532;53.084;6.352;2022-08-19T14:00:05;24.20;99.90
66629;DHT22;53532;53.084;6.352;2022-08-19T14:02:31;24.30;99.90
66629;DHT22;53532;53.084;6.352;2022-08-19T14:04:59;24.40;99.90
66629;DHT22;53532;53.084;6.352;2022-08-19T14:07:25;24.50;99.90
66629;DHT22;53532;53.084;6.352;2022-08-19T14:09:51;24.50;99.90
66629;DHT22;53532;53.084;6.352;2022-08-19T14:12:19;24.60;99.90
66629;DHT22;53532;53.084;6.352;2022-08-19T14:14:45;24.60;99.90
66629;DHT22;53532;53.084;6.352;2022-08-19T14:17:10;24.60;99.90
66629;DHT22;53532;53.084;6.352;2022-08-19T14:19:36;24.60;99.90
66629;DHT22;53532;53.084;6.352;2022-08-19T14:22:03;24.60;99.90
66629;DHT22;53532;53.084;6.352;2022-08-19T14:24:30;24.70;99.90
66629;DHT22;53532;53.084;6.352;2022-08-19T14:26:57;24.80;99.90
66629;DHT22;53532;53.084;6.352;2022-08-19T14:29:23;25.00;99.90
66629;DHT22;53532;53.084;6.352;2022-08-19T14:31:49;25.40;99.90
66629;DHT22;53532;53.084;6.352;2022-08-19T14:34:15;25.60;99.90
66629;DHT22;53532;53.084;6.352;2022-08-19T14:36:41;25.70;99.90
66629;DHT22;53532;53.084;6.352;2022-08-19T14:39:09;25.70;99.90
66629;DHT22;53532;53.084;6.352;2022-08-19T14:41:35;25.70;99.90
66629;DHT22;53532;53.084;6.352;2022-08-19T14:44:01;25.60;99.90
66629;DHT22;53532;53.084;6.352;2022-08-19T14:46:28;25.50;99.90
66629;DHT22;53532;53.084;6.352;2022-08-19T14:48:55;25.60;99.90
66629;DHT22;53532;53.084;6.352;2022-08-19T14:51:23;25.70;99.90
66629;DHT22;53532;53.084;6.352;2022-08-19T14:53:50;26.00;99.90
66629;DHT22;53532;53.084;6.352;2022-08-19T14:56:19;26.00;99.90
66629;DHT22;53532;53.084;6.352;2022-08-19T14:58:45;26.00;99.90
66629;DHT22;53532;53.084;6.352;2022-08-19T15:01:12;26.00;99.90
66629;DHT22;53532;53.084;6.352;2022-08-19T15:03:39;26.00;99.90
66629;DHT22;53532;53.084;6.352;2022-08-19T15:06:07;26.20;99.90
66629;DHT22;53532;53.084;6.352;2022-08-19T15:08:35;26.40;99.90
66629;DHT22;53532;53.084;6.352;2022-08-19T15:11:03;26.50;99.90
66629;DHT22;53532;53.084;6.352;2022-08-19T15:13:34;26.40;99.90
66629;DHT22;53532;53.084;6.352;2022-08-19T15:15:59;26.40;99.90
66629;DHT22;53532;53.084;6.352;2022-08-19T15:18:25;26.20;99.90
66629;DHT22;53532;53.084;6.352;2022-08-19T15:20:51;26.00;99.90
66629;DHT22;53532;53.084;6.352;2022-08-19T15:23:18;25.80;99.90
66629;DHT22;53532;53.084;6.352;2022-08-19T15:25:45;25.70;99.90
66629;DHT22;53532;53.084;6.352;2022-08-19T15:28:11;25.60;99.90
66629;DHT22;53532;53.084;6.352;2022-08-19T15:30:40;25.60;99.90
66629;DHT22;53532;53.084;6.352;2022-08-19T15:33:06;25.60;99.90
66629;DHT22;53532;53.084;6.352;2022-08-19T15:35:32;25.60;99.90
66629;DHT22;53532;53.084;6.352;2022-08-19T15:37:58;25.60;99.90
66629;DHT22;53532;53.084;6.352;2022-08-19T15:40:25;25.50;99.90
66629;DHT22;53532;53.084;6.352;2022-08-19T15:42:52;25.40;99.90
66629;DHT22;53532;53.084;6.352;2022-08-19T15:45:20;25.40;99.90
66629;DHT22;53532;53.084;6.352;2022-08-19T15:47:47;25.40;99.90
66629;DHT22;53532;53.084;6.352;2022-08-19T15:50:15;25.30;99.90
66629;DHT22;53532;53.084;6.352;2022-08-19T15:52:47;25.20;99.90
66629;DHT22;53532;53.084;6.352;2022-08-19T15:55:13;25.20;99.90
66629;DHT22;53532;53.084;6.352;2022-08-19T15:57:39;25.10;99.90
66629;DHT22;53532;53.084;6.352;2022-08-19T16:00:23;25.10;99.90
66629;DHT22;53532;53.084;6.352;2022-08-19T16:03:12;25.00;99.90
66629;DHT22;53532;53.084;6.352;2022-08-19T16:05:57;25.10;99.90
66629;DHT22;53532;53.084;6.352;2022-08-19T16:08:43;25.10;99.90
66629;DHT22;53532;53.084;6.352;2022-08-19T16:11:10;25.20;99.90
66629;DHT22;53532;53.084;6.352;2022-08-19T16:13:37;25.20;99.90
66629;DHT22;53532;53.084;6.352;2022-08-19T16:16:04;25.30;99.90
66629;DHT22;53532;53.084;6.352;2022-08-19T16:18:31;25.40;99.90
66629;DHT22;53532;53.084;6.352;2022-08-19T16:21:03;25.40;99.90
66629;DHT22;53532;53.084;6.352;2022-08-19T16:23:28;25.50;99.90
66629;DHT22;53532;53.084;6.352;2022-08-19T16:25:54;25.60;99.90
66629;DHT22;53532;53.084;6.352;2022-08-19T16:28:20;25.60;99.90
66629;DHT22;53532;53.084;6.352;2022-08-19T16:30:47;25.60;99.90
66629;DHT22;53532;53.084;6.352;2022-08-19T16:33:13;25.60;99.90
66629;DHT22;53532;53.084;6.352;2022-08-19T16:35:40;25.50;99.90
66629;DHT22;53532;53.084;6.352;2022-08-19T16:38:06;25.40;99.90
66629;DHT22;53532;53.084;6.352;2022-08-19T16:40:32;25.40;99.90
66629;DHT22;53532;53.084;6.352;2022-08-19T16:42:59;25.30;99.90
66629;DHT22;53532;53.084;6.352;2022-08-19T16:45:25;25.20;99.90
66629;DHT22;53532;53.084;6.352;2022-08-19T16:47:51;25.20;99.90
66629;DHT22;53532;53.084;6.352;2022-08-19T16:50:17;25.20;99.90
66629;DHT22;53532;53.084;6.352;2022-08-19T16:52:46;25.10;99.90
66629;DHT22;53532;53.084;6.352;2022-08-19T16:55:12;25.10;99.90
66629;DHT22;53532;53.084;6.352;2022-08-19T16:57:38;25.00;99.90
66629;DHT22;53532;53.084;6.352;2022-08-19T17:00:06;25.00;99.90
66629;DHT22;53532;53.084;6.352;2022-08-19T17:02:37;25.00;99.90
66629;DHT22;53532;53.084;6.352;2022-08-19T17:05:05;24.90;99.90
66629;DHT22;53532;53.084;6.352;2022-08-19T17:07:31;24.90;99.90
66629;DHT22;53532;53.084;6.352;2022-08-19T17:09:58;24.80;99.90
66629;DHT22;53532;53.084;6.352;2022-08-19T17:12:25;24.80;99.90
66629;DHT22;53532;53.084;6.352;2022-08-19T17:14:51;24.70;99.90
66629;DHT22;53532;53.084;6.352;2022-08-19T17:17:17;24.60;99.90
66629;DHT22;53532;53.084;6.352;2022-08-19T17:19:43;24.50;99.90
66629;DHT22;53532;53.084;6.352;2022-08-19T17:22:09;24.40;99.90
66629;DHT22;53532;53.084;6.352;2022-08-19T17:24:36;24.40;99.90
66629;DHT22;53532;53.084;6.352;2022-08-19T17:27:04;24.30;99.90
66629;DHT22;53532;53.084;6.352;2022-08-19T17:29:30;24.20;99.90
66629;DHT22;53532;53.084;6.352;2022-08-19T17:31:56;24.20;99.90
66629;DHT22;53532;53.084;6.352;2022-08-19T17:34:21;24.10;99.90
66629;DHT22;53532;53.084;6.352;2022-08-19T17:36:47;24.00;99.90
66629;DHT22;53532;53.084;6.352;2022-08-19T17:39:13;23.90;99.90
66629;DHT22;53532;53.084;6.352;2022-08-19T17:41:39;23.80;99.90
66629;DHT22;53532;53.084;6.352;2022-08-19T17:44:06;23.70;99.90
66629;DHT22;53532;53.084;6.352;2022-08-19T17:46:33;23.60;99.90
66629;DHT22;53532;53.084;6.352;2022-08-19T17:48:59;23.60;99.90
66629;DHT22;53532;53.084;6.352;2022-08-19T17:51:38;23.60;99.90
66629;DHT22;53532;53.084;6.352;2022-08-19T17:54:05;23.50;99.90
66629;DHT22;53532;53.084;6.352;2022-08-19T17:56:31;23.50;99.90
66629;DHT22;53532;53.084;6.352;2022-08-19T17:58:57;23.50;99.90
66629;DHT22;53532;53.084;6.352;2022-08-19T18:01:24;23.40;99.90
66629;DHT22;53532;53.084;6.352;2022-08-19T18:03:50;23.30;99.90
66629;DHT22;53532;53.084;6.352;2022-08-19T18:06:15;23.30;99.90
66629;DHT22;53532;53.084;6.352;2022-08-19T18:18:38;22.90;99.90
66629;DHT22;53532;53.084;6.352;2022-08-19T18:21:04;22.90;99.90
66629;DHT22;53532;53.084;6.352;2022-08-19T18:23:30;22.80;99.90
66629;DHT22;53532;53.084;6.352;2022-08-19T18:25:56;22.70;99.90
66629;DHT22;53532;53.084;6.352;2022-08-19T18:28:22;22.60;99.90
66629;DHT22;53532;53.084;6.352;2022-08-19T18:30:49;22.40;99.90
66629;DHT22;53532;53.084;6.352;2022-08-19T18:33:14;22.30;99.90
66629;DHT22;53532;53.084;6.352;2022-08-19T18:35:43;22.20;99.90
66629;DHT22;53532;53.084;6.352;2022-08-19T18:38:15;22.00;99.90
66629;DHT22;53532;53.084;6.352;2022-08-19T18:41:00;21.90;99.90
66629;DHT22;53532;53.084;6.352;2022-08-19T18:43:44;21.80;99.90
66629;DHT22;53532;53.084;6.352;2022-08-19T18:46:29;21.80;99.90
66629;DHT22;53532;53.084;6.352;2022-08-19T18:49:18;21.70;99.90
66629;DHT22;53532;53.084;6.352;2022-08-19T18:51:46;21.60;99.90
66629;DHT22;53532;53.084;6.352;2022-08-19T18:54:13;21.50;99.90
66629;DHT22;53532;53.084;6.352;2022-08-19T18:56:38;21.40;99.90
66629;DHT22;53532;53.084;6.352;2022-08-19T18:59:09;21.40;99.90
66629;DHT22;53532;53.084;6.352;2022-08-19T19:01:37;21.40;99.90
66629;DHT22;53532;53.084;6.352;2022-08-19T19:04:05;21.30;99.90
66629;DHT22;53532;53.084;6.352;2022-08-19T19:06:36;21.30;99.90
66629;DHT22;53532;53.084;6.352;2022-08-19T19:09:07;21.20;99.90
66629;DHT22;53532;53.084;6.352;2022-08-19T19:11:35;21.20;99.90
66629;DHT22;53532;53.084;6.352;2022-08-19T19:14:03;21.20;99.90
66629;DHT22;53532;53.084;6.352;2022-08-19T19:16:30;21.10;99.90
66629;DHT22;53532;53.084;6.352;2022-08-19T19:18:57;21.10;99.90
66629;DHT22;53532;53.084;6.352;2022-08-19T19:21:24;21.10;99.90
66629;DHT22;53532;53.084;6.352;2022-08-19T19:23:51;21.00;99.90
66629;DHT22;53532;53.084;6.352;2022-08-19T19:26:19;20.90;99.90
66629;DHT22;53532;53.084;6.352;2022-08-19T19:28:46;20.80;99.90
66629;DHT22;53532;53.084;6.352;2022-08-19T19:31:15;20.70;99.90
66629;DHT22;53532;53.084;6.352;2022-08-19T19:33:41;20.70;99.90
66629;DHT22;53532;53.084;6.352;2022-08-19T19:36:07;20.70;99.90
66629;DHT22;53532;53.084;6.352;2022-08-19T19:38:33;20.70;99.90
66629;DHT22;53532;53.084;6.352;2022-08-19T19:40:59;20.60;99.90
66629;DHT22;53532;53.084;6.352;2022-08-19T19:43:27;20.50;99.90
66629;DHT22;53532;53.084;6.352;2022-08-19T19:45:55;20.50;99.90
66629;DHT22;53532;53.084;6.352;2022-08-19T19:48:21;20.50;99.90
66629;DHT22;53532;53.084;6.352;2022-08-19T19:50:47;20.50;99.90
66629;DHT22;53532;53.084;6.352;2022-08-19T19:53:13;20.60;99.90
66629;DHT22;53532;53.084;6.352;2022-08-19T19:55:41;20.50;99.90
66629;DHT22;53532;53.084;6.352;2022-08-19T19:58:07;20.50;99.90
66629;DHT22;53532;53.084;6.352;2022-08-19T20:00:34;20.50;99.90
66629;DHT22;53532;53.084;6.352;2022-08-19T20:03:00;20.60;99.90
66629;DHT22;53532;53.084;6.352;2022-08-19T20:05:26;20.50;99.90
66629;DHT22;53532;53.084;6.352;2022-08-19T20:07:53;20.60;99.90
66629;DHT22;53532;53.084;6.352;2022-08-19T20:10:39;20.60;99.90
66629;DHT22;53532;53.084;6.352;2022-08-19T20:13:06;20.60;99.90
66629;DHT22;53532;53.084;6.352;2022-08-19T20:15:34;20.60;99.90
66629;DHT22;53532;53.084;6.352;2022-08-19T20:18:00;20.60;99.90
66629;DHT22;53532;53.084;6.352;2022-08-19T20:20:29;20.60;99.90
66629;DHT22;53532;53.084;6.352;2022-08-19T20:22:56;20.60;99.90
66629;DHT22;53532;53.084;6.352;2022-08-19T20:25:22;20.60;99.90
66629;DHT22;53532;53.084;6.352;2022-08-19T20:27:48;20.50;99.90
66629;DHT22;53532;53.084;6.352;2022-08-19T20:30:16;20.60;99.90
66629;DHT22;53532;53.084;6.352;2022-08-19T20:32:44;20.50;99.90
66629;DHT22;53532;53.084;6.352;2022-08-19T20:35:13;20.50;99.90
66629;DHT22;53532;53.084;6.352;2022-08-19T20:37:39;20.50;99.90
66629;DHT22;53532;53.084;6.352;2022-08-19T20:40:07;20.50;99.90
66629;DHT22;53532;53.084;6.352;2022-08-19T20:42:38;20.60;99.90
66629;DHT22;53532;53.084;6.352;2022-08-19T20:45:06;20.50;99.90
66629;DHT22;53532;53.084;6.352;2022-08-19T20:47:33;20.50;99.90
66629;DHT22;53532;53.084;6.352;2022-08-19T20:50:00;20.50;99.90
66629;DHT22;53532;53.084;6.352;2022-08-19T20:52:26;20.50;99.90
66629;DHT22;53532;53.084;6.352;2022-08-19T20:54:51;20.50;99.90
66629;DHT22;53532;53.084;6.352;2022-08-19T20:57:17;20.50;99.90
66629;DHT22;53532;53.084;6.352;2022-08-19T20:59:43;20.50;99.90
66629;DHT22;53532;53.084;6.352;2022-08-19T21:02:09;20.50;99.90
66629;DHT22;53532;53.084;6.352;2022-08-19T21:04:35;20.50;99.90
66629;DHT22;53532;53.084;6.352;2022-08-19T21:07:02;20.50;99.90
66629;DHT22;53532;53.084;6.352;2022-08-19T21:09:28;20.40;99.90
66629;DHT22;53532;53.084;6.352;2022-08-19T21:11:54;20.40;99.90
66629;DHT22;53532;53.084;6.352;2022-08-19T21:14:20;20.40;99.90
66629;DHT22;53532;53.084;6.352;2022-08-19T21:16:47;20.40;99.90
66629;DHT22;53532;53.084;6.352;2022-08-19T21:19:13;20.40;99.90
66629;DHT22;53532;53.084;6.352;2022-08-19T21:21:39;20.30;99.90
66629;DHT22;53532;53.084;6.352;2022-08-19T21:24:06;20.30;99.90
66629;DHT22;53532;53.084;6.352;2022-08-19T21:26:32;20.30;99.90
66629;DHT22;53532;53.084;6.352;2022-08-19T21:28:58;20.30;99.90
66629;DHT22;53532;53.084;6.352;2022-08-19T21:31:24;20.30;99.90
66629;DHT22;53532;53.084;6.352;2022-08-19T21:33:50;20.30;99.90
66629;DHT22;53532;53.084;6.352;2022-08-19T21:36:15;20.20;99.90
66629;DHT22;53532;53.084;6.352;2022-08-19T21:38:42;20.20;99.90
66629;DHT22;53532;53.084;6.352;2022-08-19T21:41:09;20.20;99.90
66629;DHT22;53532;53.084;6.352;2022-08-19T21:43:35;20.10;99.90
66629;DHT22;53532;53.084;6.352;2022-08-19T21:46:02;20.10;99.90
66629;DHT22;53532;53.084;6.352;2022-08-19T21:48:28;20.10;99.90
66629;DHT22;53532;53.084;6.352;2022-08-19T21:50:54;20.00;99.90